Time;durP1;ratioP1;P1;durP2;ratioP2;P2;SDS_P1;SDS_P2;PMS_P1;PMS_P2;Temp;Humidity;BMP_temperature;BMP_pressure;BME280_temperature;BME280_humidity;BME280_pressure;Samples;Min_cycle;Max_cycle;Signal;HPM_P1;HPM_P2
2021/12/16 00:01:45;;;;;;;2.38;1.98;;;7.70;99.90;;;;;;5003296;28;20519;-75
2021/12/16 00:01:51;;;;;;;1.08;1.08;;;7.70;99.90;;;;;;4957642;28;20072;-76
2021/12/16 00:07:16;;;;;;;2.38;1.67;;;7.70;99.90;;;;;;4986229;28;20455;-75
2021/12/16 00:09:56;;;;;;;3.67;1.05;;;7.70;99.90;;;;;;4985600;28;20108;-75
2021/12/16 00:34:02;;;;;;;2.33;1.87;;;7.80;99.90;;;;;;4982689;28;20489;-75
2021/12/16 00:36:35;;;;;;;3.22;1.35;;;7.80;99.90;;;;;;4982051;28;20313;-75
2021/12/16 00:39:03;;;;;;;;;;;7.80;99.90;;;;;;4965864;28;20056;-75
2021/12/16 00:41:29;;;;;;;3.05;1.63;;;7.80;99.90;;;;;;4983133;28;20347;-75
2021/12/16 00:44:06;;;;;;;0.75;0.75;;;7.80;99.90;;;;;;4965558;28;20054;-75
2021/12/16 00:49:51;;;;;;;0.93;0.40;;;7.80;99.90;;;;;;4981404;28;20077;-75
2021/12/16 00:55:05;;;;;;;2.10;1.38;;;7.80;99.90;;;;;;4965182;28;20053;-75
2021/12/16 00:57:31;;;;;;;1.65;1.15;;;7.80;99.90;;;;;;4982406;28;20056;-75
2021/12/16 00:59:59;;;;;;;0.98;0.90;;;7.80;99.90;;;;;;4965295;28;20054;-76
2021/12/16 01:08:09;;;;;;;1.52;1.42;;;7.80;99.90;;;;;;4964887;28;20054;-75
2021/12/16 01:35:43;;;;;;;5.05;1.92;;;7.70;99.90;;;;;;4983823;28;20262;-75
2021/12/16 01:41:43;;;;;;;3.75;1.73;;;7.70;99.90;;;;;;4984233;28;20058;-75
2021/12/16 01:51:58;;;;;;;0.75;0.73;;;7.70;99.90;;;;;;4984001;28;20720;-75
2021/12/16 01:57:02;;;;;;;1.80;1.70;;;7.70;99.90;;;;;;4983943;28;20076;-75
2021/12/16 01:59:34;;;;;;;1.02;1.02;;;7.70;99.90;;;;;;5001729;28;20100;-75
2021/12/16 02:02:29;;;;;;;1.77;1.67;;;7.70;99.90;;;;;;5001306;28;20042;-75
2021/12/16 02:05:54;;;;;;;1.50;1.40;;;7.70;99.90;;;;;;4996223;22;20504;-75
2021/12/16 02:10:33;;;;;;;0.40;0.40;;;7.70;99.90;;;;;;4982028;28;20061;-73
2021/12/16 02:27:26;;;;;;;2.03;1.92;;;7.60;99.90;;;;;;4964559;28;20058;-73
2021/12/16 02:35:13;;;;;;;2.45;1.17;;;7.40;99.90;;;;;;5000918;28;20046;-73
2021/12/16 02:37:45;;;;;;;0.63;0.63;;;7.40;99.90;;;;;;5005203;28;20046;-73
2021/12/16 02:40:12;;;;;;;2.83;1.10;;;7.40;99.90;;;;;;4987471;28;20060;-73
2021/12/16 02:42:51;;;;;;;1.10;1.08;;;7.40;99.90;;;;;;4987437;28;20290;-73
2021/12/16 02:48:47;;;;;;;0.93;0.90;;;7.40;99.90;;;;;;5004929;28;20084;-73
2021/12/16 02:50:48;;;;;;;7.00;1.52;;;7.30;99.90;;;;;;5003333;28;20416;-73
2021/12/16 02:53:13;;;;;;;0.43;0.43;;;7.30;99.90;;;;;;4986923;28;20042;-73
2021/12/16 02:55:39;;;;;;;0.80;0.80;;;7.30;99.90;;;;;;4987224;28;20734;-72
2021/12/16 02:58:05;;;;;;;1.65;1.55;;;7.30;99.90;;;;;;4986840;28;20125;-73
2021/12/16 03:00:37;;;;;;;0.93;0.93;;;7.20;99.90;;;;;;4987255;28;20609;-73
2021/12/16 03:03:03;;;;;;;9.70;2.40;;;7.20;99.90;;;;;;4986579;28;20575;-73
2021/12/16 03:05:29;;;;;;;1.65;1.52;;;7.20;99.90;;;;;;4985973;28;20050;-72
2021/12/16 03:07:54;;;;;;;1.35;1.25;;;7.20;99.90;;;;;;5003808;28;20042;-73
2021/12/16 03:13:04;;;;;;;1.00;1.00;;;7.20;99.90;;;;;;4987283;28;20054;-73
2021/12/16 03:18:30;;;;;;;1.25;1.15;;;7.20;99.90;;;;;;5004230;28;20050;-73
2021/12/16 03:21:05;;;;;;;1.23;1.17;;;7.10;99.90;;;;;;4986056;28;20096;-73
2021/12/16 03:23:42;;;;;;;1.90;1.75;;;7.20;99.90;;;;;;5004269;28;20042;-73
2021/12/16 03:26:40;;;;;;;0.75;0.73;;;7.10;99.90;;;;;;4986452;28;20041;-73
2021/12/16 03:34:32;;;;;;;0.88;0.88;;;7.10;99.90;;;;;;4966353;28;20058;-73
2021/12/16 03:39:37;;;;;;;1.77;1.15;;;7.10;99.90;;;;;;4984409;28;20059;-73
2021/12/16 03:42:04;;;;;;;1.20;1.00;;;7.10;99.90;;;;;;4984157;28;20054;-73
2021/12/16 03:44:48;;;;;;;2.38;2.17;;;7.00;99.90;;;;;;4984027;28;20039;-73
2021/12/16 03:47:15;;;;;;;9.07;1.25;;;7.00;99.90;;;;;;4966684;28;20508;-73
2021/12/16 03:49:41;;;;;;;5.68;2.75;;;7.00;99.90;;;;;;4965841;28;20495;-73
2021/12/16 03:52:08;;;;;;;2.30;2.10;;;7.00;99.90;;;;;;4983960;28;20057;-73
2021/12/16 03:54:40;;;;;;;0.60;0.60;;;7.00;99.90;;;;;;4983829;28;20065;-73
2021/12/16 03:57:09;;;;;;;11.98;0.95;;;7.00;99.90;;;;;;4966564;28;20050;-73
2021/12/16 03:59:36;;;;;;;2.05;1.13;;;6.90;99.90;;;;;;4983946;28;20042;-73
2021/12/16 04:02:08;;;;;;;1.48;1.38;;;6.90;99.90;;;;;;4983340;28;20524;-72
2021/12/16 04:04:34;;;;;;;0.70;0.70;;;6.90;99.90;;;;;;4982862;28;20069;-73
2021/12/16 04:07:00;;;;;;;0.75;0.40;;;6.80;99.90;;;;;;4966473;28;20412;-73
2021/12/16 04:09:25;;;;;;;0.63;0.63;;;6.80;99.90;;;;;;4983400;28;20042;-73
2021/12/16 04:12:03;;;;;;;6.63;1.90;;;6.70;99.90;;;;;;4965856;28;20092;-74
2021/12/16 04:14:28;;;;;;;1.25;1.25;;;6.70;99.90;;;;;;4983508;28;20540;-73
2021/12/16 04:16:56;;;;;;;1.95;0.82;;;6.70;99.90;;;;;;4965625;28;20082;-73
2021/12/16 04:19:25;;;;;;;1.35;1.25;;;6.70;99.90;;;;;;4982724;28;20046;-73
2021/12/16 04:21:59;;;;;;;0.90;0.90;;;6.80;99.90;;;;;;4965711;28;20038;-74
2021/12/16 04:24:25;;;;;;;1.10;1.10;;;6.70;99.90;;;;;;4983508;28;20614;-73
2021/12/16 04:26:53;;;;;;;1.15;1.05;;;6.70;99.90;;;;;;4982950;28;20085;-74
2021/12/16 04:29:19;;;;;;;7.13;1.77;;;6.80;99.90;;;;;;4992387;28;20063;-73
2021/12/16 04:31:46;;;;;;;1.00;1.00;;;6.80;99.90;;;;;;5003026;28;20137;-73
2021/12/16 04:34:11;;;;;;;2.00;0.65;;;6.80;99.90;;;;;;5001435;28;20487;-73
2021/12/16 04:36:38;;;;;;;0.93;0.60;;;6.80;99.90;;;;;;5002857;28;20125;-73
2021/12/16 04:39:08;;;;;;;2.33;2.22;;;6.90;99.90;;;;;;5002347;28;20150;-72
2021/12/16 04:41:34;;;;;;;1.67;1.58;;;6.90;99.90;;;;;;5003019;28;20041;-73
2021/12/16 04:44:02;;;;;;;1.65;1.55;;;6.90;99.90;;;;;;4984744;28;20058;-73
2021/12/16 04:46:30;;;;;;;0.60;0.60;;;6.90;99.90;;;;;;5002673;28;20046;-73
2021/12/16 04:48:58;;;;;;;1.50;1.40;;;6.90;99.90;;;;;;4983771;28;20092;-73
2021/12/16 04:51:26;;;;;;;1.02;1.02;;;6.90;99.90;;;;;;4985248;28;20141;-73
2021/12/16 04:53:52;;;;;;;0.45;0.45;;;6.80;99.90;;;;;;5002447;28;20113;-74
2021/12/16 04:56:19;;;;;;;0.70;0.70;;;6.80;99.90;;;;;;5002876;28;20129;-73
2021/12/16 04:58:47;;;;;;;3.13;1.42;;;6.80;99.90;;;;;;5002009;28;20480;-73
2021/12/16 05:01:14;;;;;;;0.85;0.82;;;6.80;99.90;;;;;;5001915;28;20045;-72
2021/12/16 05:03:41;;;;;;;5.93;2.13;;;6.80;99.90;;;;;;5001654;28;20460;-73
2021/12/16 05:06:07;;;;;;;2.58;1.70;;;6.80;99.90;;;;;;5002206;28;20049;-73
2021/12/16 05:08:33;;;;;;;1.27;1.23;;;6.80;99.90;;;;;;5002372;28;20049;-73
2021/12/16 05:11:02;;;;;;;0.32;0.32;;;6.80;99.90;;;;;;5002233;28;20477;-73
2021/12/16 05:13:28;;;;;;;0.63;0.63;;;6.80;99.90;;;;;;4984561;28;20125;-73
2021/12/16 05:15:56;;;;;;;2.17;1.83;;;6.70;99.90;;;;;;5001805;28;20045;-73
2021/12/16 05:18:30;;;;;;;1.02;0.95;;;6.70;99.90;;;;;;5001822;28;20049;-74
2021/12/16 05:20:56;;;;;;;0.52;0.52;;;6.70;99.90;;;;;;5001294;28;20124;-73
2021/12/16 05:28:40;;;;;;;0.95;0.90;;;6.60;99.90;;;;;;4999149;28;20413;-73
2021/12/16 05:31:07;;;;;;;1.67;1.48;;;6.60;99.90;;;;;;4982137;28;20042;-73
2021/12/16 05:33:33;;;;;;;4.68;1.65;;;6.60;99.90;;;;;;4981131;28;20046;-73
2021/12/16 05:35:59;;;;;;;1.70;0.88;;;6.60;99.90;;;;;;4982035;28;20600;-73
2021/12/16 05:38:27;;;;;;;1.58;1.17;;;6.60;99.90;;;;;;4982620;28;20153;-73
2021/12/16 05:40:54;;;;;;;1.40;1.23;;;6.60;99.90;;;;;;4964950;28;20459;-73
2021/12/16 05:43:23;;;;;;;0.80;0.80;;;6.60;99.90;;;;;;4982223;28;20096;-72
2021/12/16 05:45:51;;;;;;;1.10;1.05;;;6.50;99.90;;;;;;4964899;28;20050;-72
2021/12/16 05:48:22;;;;;;;0.68;0.57;;;6.50;99.90;;;;;;4982377;28;20046;-74
2021/12/16 05:50:52;;;;;;;1.05;0.82;;;6.50;99.90;;;;;;4965343;28;20115;-72
2021/12/16 05:53:18;;;;;;;3.75;1.52;;;6.50;99.90;;;;;;4965676;28;20077;-72
2021/12/16 05:55:44;;;;;;;0.85;0.85;;;6.40;99.90;;;;;;4964101;28;20472;-72
2021/12/16 05:58:15;;;;;;;0.88;0.88;;;6.40;99.90;;;;;;4964768;28;20507;-72
2021/12/16 06:00:42;;;;;;;0.85;0.85;;;6.40;99.90;;;;;;4964887;28;20367;-73
2021/12/16 06:03:08;;;;;;;1.08;1.02;;;6.30;99.90;;;;;;4981990;28;20065;-72
2021/12/16 06:05:34;;;;;;;2.28;1.33;;;6.30;99.90;;;;;;4963755;28;20057;-72
2021/12/16 06:08:00;;;;;;;0.77;0.77;;;6.40;99.90;;;;;;4981178;28;20046;-72
2021/12/16 06:11:00;;;;;;;1.10;0.85;;;6.30;99.90;;;;;;4966063;28;20567;-72
2021/12/16 06:13:12;;;;;;;0.82;0.82;;;6.30;99.90;;;;;;4985447;28;20054;-72
2021/12/16 06:22:23;;;;;;;1.50;1.10;;;6.30;99.90;;;;;;4985900;28;20593;-72
2021/12/16 06:27:06;;;;;;;0.90;0.80;;;6.20;99.90;;;;;;4985524;28;20057;-74
2021/12/16 06:29:34;;;;;;;1.25;1.25;;;6.20;99.90;;;;;;4995962;28;20050;-74
2021/12/16 06:32:00;;;;;;;0.65;0.65;;;6.20;99.90;;;;;;4986600;28;20041;-74
2021/12/16 06:34:26;;;;;;;1.63;1.00;;;6.20;99.90;;;;;;4987023;28;20559;-74
2021/12/16 06:36:52;;;;;;;0.98;0.93;;;6.20;99.90;;;;;;5002962;28;20064;-75
2021/12/16 06:39:17;;;;;;;1.38;1.17;;;6.20;99.90;;;;;;4988646;28;20468;-74
2021/12/16 06:41:43;;;;;;;0.65;0.65;;;6.20;99.90;;;;;;4960872;28;20488;-74
2021/12/16 06:44:23;;;;;;;0.32;0.32;;;6.10;99.90;;;;;;4977175;28;20093;-75
2021/12/16 06:46:51;;;;;;;1.48;1.38;;;6.10;99.90;;;;;;4966107;28;20047;-74
2021/12/16 06:49:18;;;;;;;0.93;0.85;;;6.10;99.90;;;;;;4985644;28;20140;-74
2021/12/16 06:51:54;;;;;;;1.23;1.20;;;6.10;99.90;;;;;;4968347;28;20078;-75
2021/12/16 06:54:30;;;;;;;1.10;1.08;;;6.10;99.90;;;;;;4965936;28;20108;-77
2021/12/16 06:57:20;;;;;;;0.75;0.75;;;6.00;99.90;;;;;;4979726;28;20046;-74
2021/12/16 07:00:07;;;;;;;6.82;1.45;;;6.00;99.90;;;;;;4970027;28;20094;-79
2021/12/16 07:02:46;;;;;;;1.75;1.65;;;6.00;99.90;;;;;;4965938;28;20046;-79
2021/12/16 07:05:13;;;;;;;1.48;1.38;;;6.00;99.90;;;;;;4982044;28;20111;-78
2021/12/16 07:07:39;;;;;;;1.00;1.00;;;6.00;99.90;;;;;;4983689;28;20058;-78
2021/12/16 07:10:07;;;;;;;1.45;1.30;;;5.90;99.90;;;;;;4965895;28;20397;-78
2021/12/16 07:12:37;;;;;;;2.10;1.30;;;5.90;99.90;;;;;;4981119;28;20042;-79
2021/12/16 07:15:07;;;;;;;1.58;1.55;;;5.90;99.90;;;;;;4972072;28;20251;-79
2021/12/16 07:17:33;;;;;;;0.75;0.75;;;5.90;99.90;;;;;;4976428;28;20043;-79
2021/12/16 07:19:59;;;;;;;1.35;1.25;;;5.90;99.90;;;;;;4947112;28;20046;-80
2021/12/16 07:22:24;;;;;;;0.57;0.57;;;5.90;99.90;;;;;;4979555;28;20108;-80
2021/12/16 07:24:50;;;;;;;2.00;1.90;;;5.90;99.90;;;;;;4982618;28;20093;-79
2021/12/16 07:27:16;;;;;;;1.10;1.10;;;5.90;99.90;;;;;;4977333;28;20097;-82
2021/12/16 07:29:42;;;;;;;3.33;2.20;;;5.90;99.90;;;;;;4984813;28;20443;-80
2021/12/16 07:32:08;;;;;;;1.00;0.73;;;5.90;99.90;;;;;;4981350;28;20125;-80
2021/12/16 07:34:34;;;;;;;0.98;0.93;;;5.90;99.90;;;;;;4965509;28;20121;-80
2021/12/16 07:37:04;;;;;;;2.33;2.15;;;6.00;99.90;;;;;;4983415;28;20101;-80
2021/12/16 07:39:37;;;;;;;0.52;0.52;;;6.00;99.90;;;;;;4966283;28;20058;-80
2021/12/16 07:42:04;;;;;;;1.27;1.17;;;5.90;99.90;;;;;;4983638;28;20113;-80
2021/12/16 07:44:31;;;;;;;1.00;1.00;;;5.90;99.90;;;;;;4965959;28;20125;-80
2021/12/16 07:47:03;;;;;;;2.25;2.05;;;6.00;99.90;;;;;;4983276;28;20120;-81
2021/12/16 07:49:32;;;;;;;6.05;1.38;;;6.00;99.90;;;;;;4965185;28;20081;-80
2021/12/16 07:51:59;;;;;;;0.93;0.93;;;5.90;99.90;;;;;;4982292;28;20081;-80
2021/12/16 07:54:25;;;;;;;0.70;0.70;;;5.90;99.90;;;;;;4961931;28;20049;-80
2021/12/16 07:56:55;;;;;;;1.25;1.15;;;5.90;99.90;;;;;;4964364;28;20107;-80
2021/12/16 07:59:21;;;;;;;0.88;0.88;;;5.90;99.90;;;;;;4967849;28;20039;-82
2021/12/16 08:01:47;;;;;;;3.90;1.25;;;5.90;99.90;;;;;;4981557;28;20101;-81
2021/12/16 08:04:20;;;;;;;0.85;0.85;;;5.90;99.90;;;;;;4977932;28;20055;-81
2021/12/16 08:06:49;;;;;;;1.45;1.35;;;5.90;99.90;;;;;;4981987;28;20620;-81
2021/12/16 08:09:15;;;;;;;15.60;0.95;;;5.90;99.90;;;;;;4981437;28;20088;-81
2021/12/16 08:11:42;;;;;;;4.10;2.20;;;5.90;99.90;;;;;;4964040;28;20053;-81
2021/12/16 08:14:09;;;;;;;1.00;0.85;;;5.90;99.90;;;;;;4981425;28;20323;-81
2021/12/16 08:16:35;;;;;;;1.33;1.23;;;5.90;99.90;;;;;;4981746;28;20050;-81
2021/12/16 08:19:02;;;;;;;2.13;0.98;;;5.90;99.90;;;;;;4980975;28;20050;-81
2021/12/16 08:21:29;;;;;;;0.65;0.60;;;6.00;99.90;;;;;;4964764;28;20046;-81
2021/12/16 08:24:06;;;;;;;1.88;1.77;;;5.90;99.90;;;;;;4981807;28;20464;-82
2021/12/16 08:26:32;;;;;;;1.50;1.40;;;5.90;99.90;;;;;;4981686;28;20053;-81
2021/12/16 08:28:58;;;;;;;0.68;0.55;;;5.90;99.90;;;;;;4987545;28;20393;-81
2021/12/16 08:31:25;;;;;;;0.63;0.63;;;5.90;99.90;;;;;;5001602;28;20072;-81
2021/12/16 08:33:50;;;;;;;1.23;1.20;;;5.90;99.90;;;;;;4982312;28;20053;-79
2021/12/16 08:36:17;;;;;;;3.20;1.10;;;5.90;99.90;;;;;;4983608;28;20046;-81
2021/12/16 08:38:44;;;;;;;1.63;1.50;;;6.00;99.90;;;;;;5001238;28;20414;-81
2021/12/16 08:41:14;;;;;;;0.88;0.88;;;6.00;99.90;;;;;;5000779;28;20045;-81
2021/12/16 08:43:41;;;;;;;4.05;2.08;;;6.10;99.90;;;;;;4983439;28;20050;-81
2021/12/16 08:46:08;;;;;;;2.83;2.63;;;6.10;99.90;;;;;;4983267;28;20124;-81
2021/12/16 08:48:35;;;;;;;1.10;1.10;;;6.10;99.90;;;;;;5000340;28;20408;-81
2021/12/16 08:51:01;;;;;;;1.85;1.52;;;6.10;99.90;;;;;;5001193;28;20125;-81
2021/12/16 08:53:27;;;;;;;1.20;0.80;;;6.20;99.90;;;;;;4983299;28;20049;-81
2021/12/16 08:55:54;;;;;;;1.13;1.13;;;6.20;99.90;;;;;;4982961;28;20085;-81
2021/12/16 08:58:22;;;;;;;0.63;0.47;;;6.20;99.90;;;;;;5000828;28;20143;-81
2021/12/16 09:00:59;;;;;;;1.23;1.13;;;6.20;99.90;;;;;;4983726;28;20240;-81
2021/12/16 09:03:27;;;;;;;0.80;0.80;;;6.20;99.90;;;;;;4965967;28;20042;-81
2021/12/16 09:05:53;;;;;;;1.52;1.42;;;6.20;99.90;;;;;;5000592;28;20054;-81
2021/12/16 09:08:19;;;;;;;2.60;2.40;;;6.20;99.90;;;;;;5000922;28;20034;-81
2021/12/16 09:10:45;;;;;;;1.63;1.45;;;6.20;99.90;;;;;;5000578;28;20497;-81
2021/12/16 09:13:15;;;;;;;1.58;1.45;;;6.30;99.90;;;;;;5000554;28;20048;-81
2021/12/16 09:15:44;;;;;;;11.05;2.70;;;6.30;99.90;;;;;;4982923;28;20046;-81
2021/12/16 09:18:11;;;;;;;0.80;0.80;;;6.30;99.90;;;;;;4999461;28;20050;-81
2021/12/16 09:20:37;;;;;;;1.20;1.17;;;6.30;99.90;;;;;;5000929;28;20475;-81
2021/12/16 09:23:04;;;;;;;1.40;1.30;;;6.30;99.90;;;;;;5000623;28;20050;-81
2021/12/16 09:25:30;;;;;;;2.03;1.92;;;6.40;99.90;;;;;;5000378;28;20500;-81
2021/12/16 09:27:56;;;;;;;1.02;0.98;;;6.40;99.90;;;;;;4982768;28;20046;-82
2021/12/16 09:30:26;;;;;;;0.77;0.77;;;6.40;99.90;;;;;;4983902;28;20474;-81
2021/12/16 09:32:56;;;;;;;2.15;2.05;;;6.40;99.90;;;;;;4962433;28;20043;-81
2021/12/16 09:35:23;;;;;;;4.18;1.75;;;6.40;99.90;;;;;;4981035;28;20042;-81
2021/12/16 09:37:49;;;;;;;1.70;1.35;;;6.50;99.90;;;;;;4964282;28;20485;-81
2021/12/16 09:40:21;;;;;;;1.05;1.05;;;6.50;99.90;;;;;;4980821;28;20034;-81
2021/12/16 09:42:47;;;;;;;1.10;1.10;;;6.50;99.90;;;;;;4963881;28;20134;-81
2021/12/16 09:45:14;;;;;;;1.45;1.35;;;6.60;99.90;;;;;;4983586;28;20073;-81
2021/12/16 09:47:40;;;;;;;1.63;1.52;;;6.50;99.90;;;;;;4984190;28;20058;-81
2021/12/16 09:50:09;;;;;;;1.42;1.33;;;6.60;99.90;;;;;;4966970;28;20054;-81
2021/12/16 09:52:34;;;;;;;3.60;1.80;;;6.60;99.90;;;;;;4967276;28;20121;-81
2021/12/16 09:55:01;;;;;;;1.40;1.30;;;6.60;99.90;;;;;;4983886;28;20145;-81
2021/12/16 09:57:28;;;;;;;1.65;1.55;;;6.60;99.90;;;;;;4966458;28;20495;-81
2021/12/16 09:59:55;;;;;;;4.95;2.95;;;6.70;99.90;;;;;;4984719;28;20142;-82
2021/12/16 10:02:22;;;;;;;1.85;1.75;;;6.60;99.90;;;;;;4984810;28;20042;-81
2021/12/16 10:04:48;;;;;;;2.47;1.73;;;6.70;99.90;;;;;;4983971;28;20456;-81
2021/12/16 10:07:21;;;;;;;2.00;1.83;;;6.70;99.90;;;;;;4983909;28;20042;-81
2021/12/16 10:09:52;;;;;;;1.17;1.17;;;6.70;99.90;;;;;;4967711;28;20050;-81
2021/12/16 10:12:23;;;;;;;1.52;1.42;;;6.70;99.90;;;;;;4967341;28;20559;-81
2021/12/16 10:17:30;;;;;;;2.55;1.45;;;6.70;99.90;;;;;;4983834;28;20489;-81
2021/12/16 10:20:13;;;;;;;2.47;1.65;;;6.80;99.90;;;;;;4983338;28;20158;-82
2021/12/16 10:22:41;;;;;;;;;;;6.80;99.90;;;;;;4984249;28;20038;-81
2021/12/16 10:25:32;;;;;;;2.63;2.42;;;6.80;99.90;;;;;;4983584;28;19948;-81
2021/12/16 10:28:17;;;;;;;1.70;1.60;;;6.90;99.90;;;;;;4983506;28;20046;-81
2021/12/16 10:30:54;;;;;;;3.33;3.00;;;6.90;99.90;;;;;;4964403;28;20031;-81
2021/12/16 10:33:35;;;;;;;2.10;2.00;;;6.90;99.90;;;;;;4946990;28;20043;-81
2021/12/16 10:36:14;;;;;;;2.67;2.42;;;6.90;99.90;;;;;;4963239;28;20053;-82
2021/12/16 10:38:52;;;;;;;1.40;1.30;;;6.90;99.90;;;;;;4964333;28;20078;-81
2021/12/16 10:41:26;;;;;;;2.72;2.53;;;7.00;99.90;;;;;;4965237;28;20039;-81
2021/12/16 10:44:09;;;;;;;2.67;2.47;;;7.00;99.90;;;;;;4964087;28;20502;-82
2021/12/16 10:46:54;;;;;;;2.58;2.38;;;7.00;99.90;;;;;;4967572;28;20043;-81
2021/12/16 10:49:25;;;;;;;3.25;2.58;;;7.10;99.90;;;;;;4952440;28;20034;-81
2021/12/16 10:51:55;;;;;;;2.60;2.40;;;7.10;99.90;;;;;;4967621;28;20050;-78
2021/12/16 10:54:25;;;;;;;2.85;2.63;;;7.10;99.90;;;;;;4983925;28;20046;-79
2021/12/16 10:57:04;;;;;;;1.88;1.77;;;7.10;99.90;;;;;;4974995;28;20047;-77
2021/12/16 10:59:34;;;;;;;3.15;2.70;;;7.10;99.90;;;;;;4976059;28;20050;-77
2021/12/16 11:02:01;;;;;;;3.33;1.83;;;7.10;99.90;;;;;;4983148;28;20379;-77
2021/12/16 11:04:31;;;;;;;2.65;1.92;;;7.10;99.90;;;;;;4981308;28;20054;-77
2021/12/16 11:07:06;;;;;;;2.08;1.98;;;7.10;99.90;;;;;;4970535;28;20118;-76
2021/12/16 11:09:50;;;;;;;2.60;2.40;;;7.20;99.90;;;;;;4966069;28;20100;-76
2021/12/16 11:12:27;;;;;;;1.67;1.58;;;7.20;99.90;;;;;;4981843;28;20046;-76
2021/12/16 11:15:11;;;;;;;1.90;1.80;;;7.20;99.90;;;;;;4962012;28;20493;-75
2021/12/16 11:17:44;;;;;;;2.63;2.42;;;7.20;99.90;;;;;;4977626;28;20457;-78
2021/12/16 11:20:27;;;;;;;2.15;2.05;;;7.30;99.90;;;;;;4983727;28;20069;-75
2021/12/16 11:22:57;;;;;;;3.25;1.52;;;7.20;99.90;;;;;;4966319;28;20566;-75
2021/12/16 11:25:43;;;;;;;3.72;2.30;;;7.30;99.90;;;;;;4966683;28;20078;-75
2021/12/16 11:28:14;;;;;;;3.10;2.30;;;7.30;99.90;;;;;;4964840;28;20058;-75
2021/12/16 11:30:54;;;;;;;2.80;2.50;;;7.40;99.90;;;;;;4983302;28;20077;-75
2021/12/16 11:33:34;;;;;;;4.13;3.50;;;7.40;99.90;;;;;;4982868;28;20046;-75
2021/12/16 11:36:15;;;;;;;5.68;3.10;;;7.40;99.90;;;;;;4951774;28;20055;-74
2021/12/16 11:38:51;;;;;;;2.63;2.42;;;7.50;99.90;;;;;;4963452;28;20043;-75
2021/12/16 11:41:30;;;;;;;2.92;2.65;;;7.50;99.90;;;;;;4968823;28;20440;-75
2021/12/16 11:44:13;;;;;;;1.38;1.35;;;7.50;99.90;;;;;;4964941;28;20340;-76
2021/12/16 11:47:04;;;;;;;6.95;3.22;;;7.50;99.90;;;;;;4981949;28;20421;-76
2021/12/16 11:49:53;;;;;;;3.90;3.03;;;7.60;99.90;;;;;;4948553;28;20145;-76
2021/12/16 11:52:25;;;;;;;5.75;3.47;;;7.60;99.90;;;;;;4983122;28;20050;-76
2021/12/16 11:55:07;;;;;;;4.15;3.85;;;7.60;99.90;;;;;;4959799;28;20047;-77
2021/12/16 11:57:47;;;;;;;4.95;3.67;;;7.70;99.90;;;;;;4962953;28;20042;-76
2021/12/16 12:00:29;;;;;;;3.25;3.00;;;7.70;99.90;;;;;;4963567;28;20046;-76
2021/12/16 12:03:07;;;;;;;1.77;1.67;;;7.70;99.90;;;;;;4979851;28;20070;-77
2021/12/16 12:05:48;;;;;;;2.90;2.55;;;7.80;99.90;;;;;;4982810;28;20167;-75
2021/12/16 12:08:21;;;;;;;2.83;2.35;;;7.80;99.90;;;;;;4964067;28;20510;-75
2021/12/16 12:11:16;;;;;;;4.28;2.78;;;7.90;99.90;;;;;;4965918;28;20049;-74
2021/12/16 12:14:07;;;;;;;3.17;2.88;;;7.80;99.90;;;;;;4982277;28;20227;-74
2021/12/16 12:16:40;;;;;;;3.08;2.88;;;7.90;99.90;;;;;;4965482;28;20081;-76
2021/12/16 12:19:22;;;;;;;3.28;3.00;;;7.90;99.90;;;;;;4971107;28;21001;-78
2021/12/16 12:22:00;;;;;;;;;;;7.90;99.90;;;;;;4953264;28;20105;-81
2021/12/16 12:24:31;;;;;;;4.50;4.07;;;7.90;99.90;;;;;;4983287;28;19925;-80
2021/12/16 12:26:57;;;;;;;3.15;2.83;;;7.90;99.90;;;;;;4964372;28;20053;-81
2021/12/16 12:29:27;;;;;;;5.50;2.80;;;7.90;99.90;;;;;;4970152;28;20046;-78
2021/12/16 12:31:56;;;;;;;2.67;2.47;;;8.00;99.90;;;;;;4945634;28;20085;-81
2021/12/16 12:34:22;;;;;;;2.95;2.70;;;8.00;99.90;;;;;;4965588;28;20055;-81
2021/12/16 12:36:52;;;;;;;3.78;3.38;;;8.00;99.90;;;;;;4963934;28;20493;-82
2021/12/16 12:39:21;;;;;;;2.65;2.45;;;8.10;99.90;;;;;;4951418;28;20046;-75
2021/12/16 12:41:47;;;;;;;3.60;2.65;;;8.10;99.90;;;;;;4964527;28;20113;-78
2021/12/16 12:44:13;;;;;;;3.70;2.28;;;8.10;99.90;;;;;;4981538;28;20042;-78
2021/12/16 12:46:40;;;;;;;2.92;2.65;;;8.10;99.90;;;;;;4980080;28;20105;-77
2021/12/16 12:49:09;;;;;;;4.55;3.55;;;8.10;99.90;;;;;;4974049;28;20066;-79
2021/12/16 12:51:40;;;;;;;4.47;2.70;;;8.10;99.90;;;;;;4945498;28;20446;-76
2021/12/16 12:54:21;;;;;;;3.38;3.10;;;8.10;99.90;;;;;;4961230;28;20080;-79
2021/12/16 12:56:49;;;;;;;12.13;3.10;;;8.20;99.90;;;;;;4961046;28;20319;-77
2021/12/16 12:59:15;;;;;;;5.50;2.67;;;8.10;99.90;;;;;;4962089;28;20144;-77
2021/12/16 13:02:07;;;;;;;3.60;3.15;;;8.10;99.90;;;;;;4962524;28;20137;-77
2021/12/16 13:04:45;;;;;;;3.03;2.20;;;8.20;99.90;;;;;;4959120;28;20050;-77
2021/12/16 13:07:12;;;;;;;4.07;3.72;;;8.20;99.90;;;;;;4947574;28;20320;-77
2021/12/16 13:09:42;;;;;;;5.13;4.45;;;8.20;99.90;;;;;;4964121;28;20046;-77
2021/12/16 13:12:50;;;;;;;4.43;3.50;;;8.20;99.90;;;;;;4979352;28;20045;-78
2021/12/16 13:15:37;;;;;;;4.40;3.55;;;8.20;99.90;;;;;;4949658;28;20401;-80
2021/12/16 13:23:59;;;;;;;3.58;3.25;;;8.20;99.90;;;;;;4980173;28;20051;-86
2021/12/16 13:26:42;;;;;;;6.40;2.92;;;8.20;99.90;;;;;;4958830;28;20050;-82
2021/12/16 13:29:32;;;;;;;7.28;5.20;;;8.30;99.90;;;;;;4977102;28;20046;-80
2021/12/16 13:32:32;;;;;;;4.53;3.72;;;8.30;99.90;;;;;;4966091;28;20047;-81
2021/12/16 13:37:48;;;;;;;2.55;2.17;;;8.30;99.90;;;;;;4960586;28;20062;-74
2021/12/16 13:40:14;;;;;;;3.53;3.05;;;8.30;99.90;;;;;;4957046;28;20077;-75
2021/12/16 13:42:58;;;;;;;3.30;2.63;;;8.30;99.90;;;;;;4962793;28;20485;-75
2021/12/16 13:45:40;;;;;;;3.03;2.70;;;8.30;99.90;;;;;;4966337;28;20416;-80
2021/12/16 14:01:07;;;;;;;1.98;1.88;;;8.40;99.90;;;;;;4962570;28;20052;-77
2021/12/16 14:03:14;;;;;;;6.72;3.42;;;8.40;99.90;;;;;;4971126;28;20058;-76
2021/12/16 14:06:12;;;;;;;3.65;2.83;;;8.40;99.90;;;;;;4961690;28;20051;-78
2021/12/16 14:09:06;;;;;;;4.43;3.85;;;8.50;99.90;;;;;;4946284;28;20077;-76
2021/12/16 14:14:59;;;;;;;3.63;3.28;;;8.50;99.90;;;;;;4974570;28;20145;-77
2021/12/16 14:23:07;;;;;;;3.20;2.75;;;8.60;99.90;;;;;;4987884;28;19929;-76
2021/12/16 14:42:12;;;;;;;3.70;3.40;;;8.60;99.90;;;;;;4974840;28;20046;-76
2021/12/16 14:50:49;;;;;;;5.00;4.50;;;8.60;99.90;;;;;;4944785;28;20057;-76
2021/12/16 14:53:51;;;;;;;8.20;3.70;;;8.60;99.90;;;;;;4965691;28;20038;-76
2021/12/16 14:56:27;;;;;;;3.58;2.72;;;8.60;99.90;;;;;;4956623;28;20355;-75
2021/12/16 14:58:58;;;;;;;4.93;3.30;;;8.60;99.90;;;;;;4976469;28;20555;-76
2021/12/16 15:01:30;;;;;;;2.35;2.25;;;8.60;99.90;;;;;;4972497;28;20053;-76
2021/12/16 15:03:56;;;;;;;;;;;8.60;99.90;;;;;;4980133;28;20054;-77
2021/12/16 15:06:31;;;;;;;8.10;3.22;;;8.60;99.90;;;;;;4983899;28;19921;-78
2021/12/16 15:11:52;;;;;;;7.53;3.83;;;8.60;99.90;;;;;;4964475;28;20047;-75
2021/12/16 15:14:37;;;;;;;4.03;3.67;;;8.60;99.90;;;;;;4948313;28;20267;-74
2021/12/16 15:17:14;;;;;;;3.92;3.33;;;8.60;99.90;;;;;;4962547;28;20129;-74
2021/12/16 15:36:46;;;;;;;4.60;4.10;;;8.60;99.90;;;;;;4962926;28;20051;-76
2021/12/16 15:45:00;;;;;;;6.53;4.40;;;8.60;99.90;;;;;;4964065;28;20058;-74
2021/12/16 15:47:26;;;;;;;2.92;2.72;;;8.60;99.90;;;;;;4963102;28;20477;-74
2021/12/16 15:49:53;;;;;;;3.13;2.88;;;8.60;99.90;;;;;;4945861;28;20043;-74
2021/12/16 15:52:19;;;;;;;3.70;3.40;;;8.60;99.90;;;;;;4963154;28;20449;-74
2021/12/16 15:54:51;;;;;;;7.93;4.43;;;8.70;99.90;;;;;;4972087;28;20050;-74
2021/12/16 15:57:18;;;;;;;7.50;4.00;;;8.60;99.90;;;;;;4949433;28;20066;-74
2021/12/16 15:59:53;;;;;;;2.33;2.20;;;8.60;99.90;;;;;;4965227;28;20117;-74
2021/12/16 16:02:19;;;;;;;5.07;3.55;;;8.60;99.90;;;;;;4982512;28;20050;-74
2021/12/16 16:04:46;;;;;;;10.85;4.15;;;8.60;99.90;;;;;;4964720;28;20051;-74
2021/12/16 16:07:14;;;;;;;2.72;2.53;;;8.60;99.90;;;;;;4964679;28;20050;-74
2021/12/16 16:09:46;;;;;;;4.80;1.80;;;8.60;99.90;;;;;;4975966;28;20034;-74
2021/12/16 16:12:18;;;;;;;4.15;3.38;;;8.60;99.90;;;;;;4963463;28;20042;-74
2021/12/16 16:14:54;;;;;;;4.47;4.18;;;8.60;99.90;;;;;;4982363;28;20125;-74
2021/12/16 16:17:23;;;;;;;11.10;2.40;;;8.50;99.90;;;;;;4954122;28;20050;-74
2021/12/16 16:19:53;;;;;;;6.13;3.35;;;8.50;99.90;;;;;;4976799;28;20038;-74
2021/12/16 16:22:19;;;;;;;5.35;4.22;;;8.60;99.90;;;;;;4962970;28;20041;-74
2021/12/16 16:24:53;;;;;;;5.28;2.75;;;8.50;99.90;;;;;;4982771;28;20482;-74
2021/12/16 16:27:22;;;;;;;4.85;3.30;;;8.50;99.90;;;;;;4965579;28;20054;-74
2021/12/16 16:29:56;;;;;;;2.60;2.40;;;8.50;99.90;;;;;;4977565;28;20041;-74
2021/12/16 16:32:25;;;;;;;2.85;2.65;;;8.50;99.90;;;;;;4982998;28;20512;-75
2021/12/16 16:34:53;;;;;;;3.63;3.35;;;8.50;99.90;;;;;;4984749;28;20137;-76
2021/12/16 16:37:32;;;;;;;6.03;4.45;;;8.60;99.90;;;;;;4985319;28;20057;-75
2021/12/16 16:40:04;;;;;;;4.28;2.72;;;8.50;99.90;;;;;;4985050;28;20058;-74
2021/12/16 16:42:35;;;;;;;7.07;2.53;;;8.50;99.90;;;;;;4985318;28;20065;-75
2021/12/16 16:45:04;;;;;;;1.98;1.88;;;8.50;99.90;;;;;;5002410;28;20072;-75
2021/12/16 16:47:46;;;;;;;1.10;1.10;;;8.50;99.90;;;;;;4975173;28;20062;-75